createdAt,value
2023-12-20T00:00:33.031Z,34.53
2023-12-20T00:01:33.104Z,34.57
2023-12-20T00:02:33.006Z,34.54
2023-12-20T00:03:41.423Z,34.53
2023-12-20T00:04:34.042Z,34.52
2023-12-20T00:05:32.992Z,34.51
2023-12-20T00:06:33.002Z,34.50
2023-12-20T00:07:33.090Z,34.55
2023-12-20T00:08:32.957Z,34.50
2023-12-20T00:09:32.961Z,34.50
2023-12-20T00:10:32.931Z,34.48
2023-12-20T00:11:32.914Z,34.51
2023-12-20T00:12:32.911Z,34.43
2023-12-20T00:13:32.899Z,34.48
2023-12-20T00:14:32.892Z,34.44
2023-12-20T00:15:32.893Z,34.48
2023-12-20T00:16:32.918Z,34.52
2023-12-20T00:17:32.892Z,34.63
2023-12-20T00:18:32.862Z,34.53
2023-12-20T00:19:33.011Z,34.62
2023-12-20T00:20:32.845Z,34.80
2023-12-20T00:21:32.829Z,34.62
2023-12-20T00:22:32.856Z,34.63
2023-12-20T00:23:32.811Z,34.60
2023-12-20T00:24:32.824Z,34.67
2023-12-20T00:25:32.793Z,34.63
2023-12-20T00:26:32.802Z,34.58
2023-12-20T00:27:32.769Z,34.68
2023-12-20T00:28:32.829Z,34.66
2023-12-20T00:29:32.747Z,34.65
2023-12-20T00:30:32.777Z,34.61
2023-12-20T00:31:32.845Z,34.57
2023-12-20T00:32:32.794Z,34.63
2023-12-20T00:33:32.792Z,34.58
2023-12-20T00:34:32.736Z,34.49
2023-12-20T00:35:32.693Z,34.53
2023-12-20T00:36:32.698Z,34.51
2023-12-20T00:37:32.683Z,34.51
2023-12-20T00:38:41.602Z,34.50
2023-12-20T00:39:32.677Z,34.48
2023-12-20T00:40:32.656Z,34.48
2023-12-20T00:41:32.661Z,34.41
2023-12-20T00:42:32.637Z,34.43
2023-12-20T00:43:32.658Z,34.44
2023-12-20T00:44:32.630Z,34.39
2023-12-20T00:45:32.622Z,34.38
2023-12-20T00:46:32.592Z,34.41
2023-12-20T00:47:32.616Z,34.40
2023-12-20T00:48:32.610Z,34.38
2023-12-20T00:49:32.623Z,34.33
2023-12-20T00:50:32.606Z,34.35
2023-12-20T00:51:32.560Z,34.32
2023-12-20T00:52:32.666Z,34.31
2023-12-20T00:53:32.552Z,34.31
2023-12-20T00:54:32.538Z,34.30
2023-12-20T00:55:32.522Z,34.31
2023-12-20T00:56:32.503Z,34.25
2023-12-20T00:57:32.685Z,34.24
2023-12-20T00:58:32.520Z,34.22
2023-12-20T00:59:32.509Z,34.19
2023-12-20T01:00:32.525Z,34.18
2023-12-20T01:01:32.535Z,34.17
2023-12-20T01:02:32.479Z,34.13
2023-12-20T01:03:32.571Z,34.08
2023-12-20T01:04:32.479Z,34.08
2023-12-20T01:05:32.497Z,34.10
2023-12-20T01:06:32.416Z,34.09
2023-12-20T01:07:32.420Z,34.06
2023-12-20T01:08:53.397Z,34.04
2023-12-20T01:09:32.398Z,34.00
2023-12-20T01:10:32.384Z,34.04
2023-12-20T01:11:32.386Z,34.02
2023-12-20T01:12:32.372Z,33.99
2023-12-20T01:13:32.372Z,33.99
2023-12-20T01:14:32.355Z,33.95
2023-12-20T01:15:32.345Z,33.98
2023-12-20T01:16:32.325Z,33.89
2023-12-20T01:17:32.356Z,33.90
2023-12-20T01:18:32.311Z,33.89
2023-12-20T01:19:32.400Z,33.88
2023-12-20T01:20:32.307Z,33.88
2023-12-20T01:21:32.301Z,33.92
2023-12-20T01:22:32.271Z,33.83
2023-12-20T01:23:32.268Z,33.86
2023-12-20T01:24:32.262Z,33.82
2023-12-20T01:25:32.265Z,33.83
2023-12-20T01:26:32.260Z,33.87
2023-12-20T01:27:32.233Z,33.86
2023-12-20T01:28:32.275Z,33.81
2023-12-20T01:29:32.231Z,33.79
2023-12-20T01:30:32.290Z,33.78
2023-12-20T01:31:32.262Z,33.82
2023-12-20T01:32:32.209Z,33.81
2023-12-20T01:33:32.247Z,33.78
2023-12-20T01:34:32.257Z,33.79
2023-12-20T01:35:32.165Z,33.81
2023-12-20T01:36:32.163Z,33.81
2023-12-20T01:37:32.152Z,33.72
2023-12-20T01:38:32.147Z,33.76
2023-12-20T01:39:32.132Z,33.75
2023-12-20T01:40:32.204Z,33.77
2023-12-20T01:41:32.199Z,33.72
2023-12-20T01:42:32.092Z,33.69
2023-12-20T01:43:37.870Z,33.70
2023-12-20T01:44:33.136Z,33.70
2023-12-20T01:45:32.066Z,33.72
2023-12-20T01:46:32.067Z,33.66
2023-12-20T01:47:32.120Z,33.67
2023-12-20T01:48:32.042Z,33.70
2023-12-20T01:49:32.124Z,33.65
2023-12-20T01:50:32.023Z,33.67
2023-12-20T01:51:32.018Z,33.68
2023-12-20T01:52:32.042Z,33.64
2023-12-20T01:53:40.952Z,33.56
2023-12-20T01:54:32.020Z,33.56
2023-12-20T01:55:31.987Z,33.58
2023-12-20T01:56:31.956Z,33.54
2023-12-20T01:57:31.958Z,33.56
2023-12-20T01:58:35.857Z,33.56
2023-12-20T01:59:31.945Z,33.52
2023-12-20T02:00:31.928Z,33.53
2023-12-20T02:01:32.088Z,33.51
2023-12-20T02:02:31.919Z,33.45
2023-12-20T02:03:35.867Z,33.45
2023-12-20T02:04:32.003Z,33.50
2023-12-20T02:05:31.908Z,33.43
2023-12-20T02:06:31.901Z,33.41
2023-12-20T02:07:31.892Z,33.45
2023-12-20T02:08:35.795Z,33.38
2023-12-20T02:09:31.845Z,33.37
2023-12-20T02:10:31.860Z,33.38
2023-12-20T02:11:31.845Z,33.38
2023-12-20T02:12:31.818Z,33.38
2023-12-20T02:13:31.828Z,33.36
2023-12-20T02:14:31.794Z,33.38
2023-12-20T02:15:31.816Z,33.38
2023-12-20T02:16:31.785Z,33.35
2023-12-20T02:17:31.840Z,33.33
2023-12-20T02:18:31.856Z,33.28
2023-12-20T02:19:31.846Z,33.26
2023-12-20T02:20:31.738Z,33.27
2023-12-20T02:21:31.740Z,33.26
2023-12-20T02:22:31.715Z,33.29
2023-12-20T02:23:31.745Z,33.26
2023-12-20T02:24:31.714Z,33.27
2023-12-20T02:25:31.753Z,33.22
2023-12-20T02:26:31.675Z,33.24
2023-12-20T02:27:31.688Z,33.22
2023-12-20T02:28:31.713Z,33.20
2023-12-20T02:29:31.665Z,33.16
2023-12-20T02:30:31.669Z,33.16
2023-12-20T02:31:31.725Z,33.23
2023-12-20T02:32:31.683Z,33.15
2023-12-20T02:33:31.616Z,33.19
2023-12-20T02:34:31.673Z,33.13
2023-12-20T02:35:31.608Z,33.12
2023-12-20T02:36:31.594Z,33.14
2023-12-20T02:37:31.581Z,33.11
2023-12-20T02:38:31.566Z,33.11
2023-12-20T02:39:31.551Z,33.10
2023-12-20T02:40:31.543Z,33.11
2023-12-20T02:41:31.536Z,33.08
2023-12-20T02:42:31.540Z,33.04
2023-12-20T02:43:35.485Z,33.10
2023-12-20T02:44:31.524Z,33.07
2023-12-20T02:45:31.536Z,33.04
2023-12-20T02:46:31.487Z,33.05
2023-12-20T02:47:31.528Z,33.04
2023-12-20T02:48:31.559Z,32.99
2023-12-20T02:49:31.518Z,33.03
2023-12-20T02:50:31.482Z,33.03
2023-12-20T02:51:31.441Z,33.02
2023-12-20T02:52:31.484Z,33.03
2023-12-20T02:53:31.421Z,32.99
2023-12-20T02:54:31.418Z,32.99
2023-12-20T02:55:31.398Z,32.97
2023-12-20T02:56:31.395Z,32.97
2023-12-20T02:57:31.411Z,32.94
2023-12-20T02:58:40.355Z,32.93
2023-12-20T02:59:31.358Z,32.95
2023-12-20T03:00:31.349Z,32.89
2023-12-20T03:01:31.448Z,32.94
2023-12-20T03:02:31.334Z,32.94
2023-12-20T03:03:35.282Z,32.91
2023-12-20T03:04:31.422Z,32.90
2023-12-20T03:05:31.493Z,32.93
2023-12-20T03:06:31.326Z,32.89
2023-12-20T03:07:31.309Z,32.90
2023-12-20T03:08:32.063Z,32.89
2023-12-20T03:09:38.787Z,32.87
2023-12-20T03:10:32.317Z,32.89
2023-12-20T03:11:31.258Z,32.86
2023-12-20T03:12:31.229Z,32.90
2023-12-20T03:13:31.238Z,32.89
2023-12-20T03:14:31.207Z,32.87
2023-12-20T03:15:31.224Z,32.89
2023-12-20T03:16:31.202Z,32.83
2023-12-20T03:17:31.222Z,32.85
2023-12-20T03:18:35.153Z,32.84
2023-12-20T03:19:31.233Z,32.85
2023-12-20T03:20:31.153Z,32.83
2023-12-20T03:21:31.160Z,32.88
2023-12-20T03:22:31.136Z,32.82
2023-12-20T03:23:31.133Z,32.85
2023-12-20T03:24:31.136Z,32.83
2023-12-20T03:25:31.274Z,32.82
2023-12-20T03:26:31.141Z,32.79
2023-12-20T03:27:31.097Z,32.80
2023-12-20T03:28:40.079Z,32.82
2023-12-20T03:29:31.083Z,32.80
2023-12-20T03:30:31.087Z,32.80
2023-12-20T03:31:31.093Z,32.81
2023-12-20T03:32:31.128Z,32.78
2023-12-20T03:33:31.076Z,32.82
2023-12-20T03:34:31.112Z,32.79
2023-12-20T03:35:31.019Z,32.81
2023-12-20T03:36:31.009Z,32.71
2023-12-20T03:37:31.011Z,32.82
2023-12-20T03:38:31.066Z,32.81
2023-12-20T03:39:30.979Z,32.79
2023-12-20T03:40:31.034Z,32.79
2023-12-20T03:41:30.977Z,32.77
2023-12-20T03:42:30.951Z,32.78
2023-12-20T03:43:34.921Z,32.77
2023-12-20T03:44:30.931Z,32.77
2023-12-20T03:45:30.942Z,32.78
2023-12-20T03:46:30.909Z,32.74
2023-12-20T03:47:30.956Z,32.71
2023-12-20T03:48:30.889Z,32.73
2023-12-20T03:49:30.952Z,32.73
2023-12-20T03:50:30.936Z,32.73
2023-12-20T03:51:30.889Z,32.70
2023-12-20T03:52:30.868Z,32.78
2023-12-20T03:53:30.849Z,32.74
2023-12-20T03:54:30.835Z,32.74
2023-12-20T03:55:30.838Z,32.78
2023-12-20T03:56:30.821Z,32.73
2023-12-20T03:57:30.820Z,32.75
2023-12-20T03:58:30.803Z,32.77
2023-12-20T03:59:30.794Z,32.68
2023-12-20T04:00:30.829Z,32.71
2023-12-20T04:01:30.829Z,32.63
2023-12-20T04:02:30.775Z,32.70
2023-12-20T04:03:30.756Z,32.74
2023-12-20T04:04:30.839Z,32.68
2023-12-20T04:05:30.782Z,32.70
2023-12-20T04:06:30.810Z,32.63
2023-12-20T04:07:30.819Z,32.67
2023-12-20T04:08:30.716Z,32.64
2023-12-20T04:09:30.712Z,32.69
2023-12-20T04:10:30.732Z,32.69
2023-12-20T04:11:30.678Z,32.70
2023-12-20T04:12:30.677Z,32.72
2023-12-20T04:13:30.651Z,32.71
2023-12-20T04:14:30.654Z,32.68
2023-12-20T04:15:30.638Z,32.76
2023-12-20T04:16:30.629Z,32.63
2023-12-20T04:17:30.660Z,32.66
2023-12-20T04:18:30.688Z,32.66
2023-12-20T04:19:30.697Z,32.65
2023-12-20T04:20:30.593Z,32.61
2023-12-20T04:21:30.585Z,32.57
2023-12-20T04:22:30.565Z,32.62
2023-12-20T04:23:40.586Z,32.66
2023-12-20T04:24:30.550Z,32.69
2023-12-20T04:25:30.619Z,32.64
2023-12-20T04:26:30.540Z,32.66
2023-12-20T04:27:30.539Z,32.68
2023-12-20T04:28:30.531Z,32.66
2023-12-20T04:29:30.526Z,32.66
2023-12-20T04:30:30.550Z,32.70
2023-12-20T04:31:30.512Z,32.67
2023-12-20T04:32:30.469Z,32.67
2023-12-20T04:33:30.476Z,32.64
2023-12-20T04:34:30.475Z,32.66
2023-12-20T04:35:35.479Z,32.67
2023-12-20T04:36:30.434Z,32.70
2023-12-20T04:37:30.432Z,32.77
2023-12-20T04:38:30.420Z,32.71
2023-12-20T04:39:30.416Z,32.70
2023-12-20T04:40:30.426Z,32.60
2023-12-20T04:41:30.403Z,32.64
2023-12-20T04:42:30.393Z,32.73
2023-12-20T04:43:30.385Z,32.63
2023-12-20T04:44:30.355Z,32.70
2023-12-20T04:45:30.357Z,32.71
2023-12-20T04:46:30.406Z,32.65
2023-12-20T04:47:30.348Z,32.70
2023-12-20T04:48:30.333Z,32.63
2023-12-20T04:49:30.414Z,32.76
2023-12-20T04:50:30.306Z,32.73
2023-12-20T04:51:30.324Z,32.65
2023-12-20T04:52:30.326Z,32.77
2023-12-20T04:53:30.285Z,32.77
2023-12-20T04:54:30.279Z,32.70
2023-12-20T04:55:30.331Z,32.67
2023-12-20T04:56:30.264Z,32.75
2023-12-20T04:57:30.257Z,32.71
2023-12-20T04:58:30.297Z,32.70
2023-12-20T04:59:30.233Z,32.74
2023-12-20T05:00:30.211Z,32.78
2023-12-20T05:01:30.345Z,32.80
2023-12-20T05:02:30.196Z,32.68
2023-12-20T05:03:30.211Z,32.74
2023-12-20T05:04:30.255Z,32.70
2023-12-20T05:05:30.254Z,32.74
2023-12-20T05:06:30.155Z,32.71
2023-12-20T05:07:30.214Z,32.67
2023-12-20T05:08:30.136Z,32.68
2023-12-20T05:09:51.241Z,32.71
2023-12-20T05:10:30.150Z,32.73
2023-12-20T05:11:30.119Z,32.68
2023-12-20T05:12:30.103Z,32.75
2023-12-20T05:13:38.128Z,32.73
2023-12-20T05:14:40.108Z,32.71
2023-12-20T05:15:30.705Z,32.77
2023-12-20T05:16:30.083Z,32.78
2023-12-20T05:17:30.098Z,32.78
2023-12-20T05:18:30.155Z,32.73
2023-12-20T05:19:30.225Z,32.74
2023-12-20T05:20:30.104Z,32.79
2023-12-20T05:21:30.027Z,32.82
2023-12-20T05:22:30.039Z,32.74
2023-12-20T05:23:29.995Z,32.80
2023-12-20T05:24:30.020Z,32.77
2023-12-20T05:25:30.129Z,32.74
2023-12-20T05:26:29.976Z,32.64
2023-12-20T05:27:29.980Z,32.67
2023-12-20T05:28:30.016Z,32.71
2023-12-20T05:29:29.945Z,32.68
2023-12-20T05:30:29.978Z,32.74
2023-12-20T05:31:29.993Z,32.71
2023-12-20T05:32:30.017Z,32.63
2023-12-20T05:33:30.033Z,32.70
2023-12-20T05:34:30.052Z,32.62
2023-12-20T05:35:29.941Z,32.68
2023-12-20T05:36:29.887Z,32.67
2023-12-20T05:37:29.858Z,32.62
2023-12-20T05:38:29.870Z,32.73
2023-12-20T05:39:29.845Z,32.66
2023-12-20T05:40:29.854Z,32.70
2023-12-20T05:41:29.834Z,32.67
2023-12-20T05:42:29.823Z,32.64
2023-12-20T05:43:29.801Z,32.66
2023-12-20T05:44:29.829Z,32.68
2023-12-20T05:45:29.803Z,32.71
2023-12-20T05:46:29.800Z,32.68
2023-12-20T05:47:29.799Z,32.70
2023-12-20T05:48:29.796Z,32.77
2023-12-20T05:49:29.815Z,32.70
2023-12-20T05:50:29.767Z,32.66
2023-12-20T05:51:29.744Z,32.59
2023-12-20T05:52:29.730Z,32.64
2023-12-20T05:53:29.725Z,32.67
2023-12-20T05:54:29.732Z,32.67
2023-12-20T05:55:29.695Z,32.71
2023-12-20T05:56:29.691Z,32.63
2023-12-20T05:57:29.670Z,32.66
2023-12-20T05:58:29.739Z,32.70
2023-12-20T05:59:29.658Z,32.75
2023-12-20T06:00:29.662Z,32.70
2023-12-20T06:01:29.687Z,32.66
2023-12-20T06:02:29.649Z,32.62
2023-12-20T06:03:29.624Z,32.64
2023-12-20T06:04:29.738Z,32.63
2023-12-20T06:05:29.657Z,32.64
2023-12-20T06:06:29.625Z,32.68
2023-12-20T06:07:29.737Z,32.73
2023-12-20T06:08:29.580Z,32.71
2023-12-20T06:09:31.900Z,32.67
2023-12-20T06:10:33.551Z,32.71
2023-12-20T06:11:29.662Z,32.67
2023-12-20T06:12:29.662Z,32.69
2023-12-20T06:13:29.644Z,32.67
2023-12-20T06:14:29.650Z,32.70
2023-12-20T06:15:29.629Z,32.70
2023-12-20T06:16:29.686Z,32.66
2023-12-20T06:17:29.621Z,32.68
2023-12-20T06:18:29.602Z,32.62
2023-12-20T06:19:29.627Z,32.63
2023-12-20T06:20:29.583Z,32.66
2023-12-20T06:21:29.563Z,32.69
2023-12-20T06:22:29.612Z,32.59
2023-12-20T06:23:29.565Z,32.60
2023-12-20T06:24:29.581Z,32.63
2023-12-20T06:25:29.555Z,32.66
2023-12-20T06:26:29.528Z,32.69
2023-12-20T06:27:29.540Z,32.70
2023-12-20T06:28:29.548Z,32.63
2023-12-20T06:29:29.495Z,32.68
2023-12-20T06:30:29.541Z,32.69
2023-12-20T06:31:29.523Z,32.79
2023-12-20T06:32:29.500Z,32.80
2023-12-20T06:33:29.472Z,32.76
2023-12-20T06:34:29.552Z,32.69
2023-12-20T06:35:29.483Z,33.03
2023-12-20T06:36:29.463Z,33.20
2023-12-20T06:37:29.485Z,33.22
2023-12-20T06:38:29.428Z,33.11
2023-12-20T06:39:29.440Z,33.47
2023-12-20T06:40:29.431Z,33.26
2023-12-20T06:41:29.403Z,33.03
2023-12-20T06:42:31.659Z,32.10
2023-12-20T06:43:42.529Z,32.16
2023-12-20T06:44:30.449Z,31.34
2023-12-20T06:45:29.375Z,30.99
2023-12-20T06:46:29.342Z,31.63
2023-12-20T06:47:29.366Z,30.78
2023-12-20T06:48:29.318Z,30.80
2023-12-20T06:49:29.475Z,30.23
2023-12-20T06:50:29.299Z,29.95
2023-12-20T06:51:29.294Z,29.60
2023-12-20T06:52:29.283Z,29.65
2023-12-20T06:53:29.279Z,30.61
2023-12-20T06:54:29.288Z,30.64
2023-12-20T06:55:29.253Z,30.85
2023-12-20T06:56:29.266Z,31.20
2023-12-20T06:57:29.238Z,31.43
2023-12-20T06:58:29.282Z,31.88
2023-12-20T06:59:29.230Z,31.83
2023-12-20T07:00:29.301Z,32.10
2023-12-20T07:01:29.243Z,32.22
2023-12-20T07:02:29.195Z,32.41
2023-12-20T07:03:29.214Z,32.60
2023-12-20T07:04:29.289Z,32.74
2023-12-20T07:05:29.174Z,32.81
2023-12-20T07:06:29.200Z,33.00
2023-12-20T07:07:29.274Z,33.27
2023-12-20T07:08:29.153Z,33.25
2023-12-20T07:09:29.143Z,33.31
2023-12-20T07:10:29.156Z,33.51
2023-12-20T07:11:29.092Z,33.54
2023-12-20T07:12:29.099Z,33.56
2023-12-20T07:13:29.117Z,33.60
2023-12-20T07:14:29.107Z,33.82
2023-12-20T07:15:29.783Z,33.95
2023-12-20T07:16:29.091Z,34.04
2023-12-20T07:17:29.037Z,34.07
2023-12-20T07:18:29.131Z,34.14
2023-12-20T07:19:29.090Z,34.17
2023-12-20T07:20:29.066Z,34.23
2023-12-20T07:21:28.995Z,34.29
2023-12-20T07:22:30.279Z,34.36
2023-12-20T07:23:28.977Z,34.25
2023-12-20T07:24:28.987Z,34.29
2023-12-20T07:25:29.213Z,34.42
2023-12-20T07:26:28.962Z,34.52
2023-12-20T07:27:29.966Z,34.48
2023-12-20T07:28:28.985Z,34.38
2023-12-20T07:29:28.949Z,34.64
2023-12-20T07:30:28.973Z,34.74
2023-12-20T07:31:28.975Z,34.93
2023-12-20T07:32:28.915Z,34.94
2023-12-20T07:33:28.960Z,35.03
2023-12-20T07:34:29.916Z,35.02
2023-12-20T07:35:28.956Z,35.15
2023-12-20T07:36:28.866Z,35.30
2023-12-20T07:37:28.870Z,35.32
2023-12-20T07:38:28.839Z,35.49
2023-12-20T07:39:28.877Z,35.36
2023-12-20T07:40:28.884Z,35.59
2023-12-20T07:41:28.819Z,35.50
2023-12-20T07:42:28.796Z,35.82
2023-12-20T07:43:28.804Z,35.73
2023-12-20T07:44:28.880Z,35.81
2023-12-20T07:45:28.785Z,35.69
2023-12-20T07:46:28.979Z,35.73
2023-12-20T07:47:28.807Z,35.78
2023-12-20T07:48:28.785Z,35.72
2023-12-20T07:49:28.805Z,35.98
2023-12-20T07:50:28.872Z,36.00
2023-12-20T07:51:28.718Z,36.97
2023-12-20T07:52:28.812Z,36.28
2023-12-20T07:53:28.698Z,36.38
2023-12-20T07:54:28.699Z,36.38
2023-12-20T07:55:28.732Z,37.49
2023-12-20T07:56:28.678Z,37.05
2023-12-20T07:57:28.655Z,35.65
2023-12-20T07:58:40.642Z,34.06
2023-12-20T07:59:33.011Z,34.41
2023-12-20T08:00:28.701Z,33.91
2023-12-20T08:01:28.707Z,33.39
2023-12-20T08:02:28.629Z,33.72
2023-12-20T08:03:28.612Z,33.36
2023-12-20T08:04:28.741Z,33.08
2023-12-20T08:05:28.573Z,34.06
2023-12-20T08:06:28.629Z,33.60
2023-12-20T08:07:28.684Z,33.74
2023-12-20T08:08:28.563Z,33.94
2023-12-20T08:09:28.565Z,35.29
2023-12-20T08:10:28.600Z,34.01
2023-12-20T08:11:28.512Z,33.97
2023-12-20T08:12:28.546Z,33.86
2023-12-20T08:13:28.578Z,33.70
2023-12-20T08:14:28.498Z,33.64
2023-12-20T08:15:28.499Z,33.94
2023-12-20T08:16:28.723Z,34.15
2023-12-20T08:17:28.494Z,34.04
2023-12-20T08:18:28.558Z,34.98
2023-12-20T08:19:28.533Z,35.08
2023-12-20T08:20:36.756Z,34.48
2023-12-20T08:21:29.417Z,33.59
2023-12-20T08:22:28.504Z,33.38
2023-12-20T08:23:30.611Z,33.48
2023-12-20T08:24:28.408Z,33.32
2023-12-20T08:25:28.406Z,33.23
2023-12-20T08:26:28.380Z,33.52
2023-12-20T08:27:28.397Z,33.74
2023-12-20T08:28:28.445Z,34.48
2023-12-20T08:29:28.348Z,34.90
2023-12-20T08:30:28.414Z,34.32
2023-12-20T08:31:28.374Z,34.17
2023-12-20T08:32:29.312Z,34.03
2023-12-20T08:33:28.394Z,33.75
2023-12-20T08:34:28.522Z,33.51
2023-12-20T08:35:28.307Z,34.35
2023-12-20T08:36:28.303Z,34.39
2023-12-20T08:37:28.297Z,34.37
2023-12-20T08:38:28.281Z,34.73
2023-12-20T08:39:28.247Z,34.00
2023-12-20T08:40:28.320Z,33.91
2023-12-20T08:41:28.238Z,35.73
2023-12-20T08:42:28.239Z,35.44
2023-12-20T08:43:28.231Z,36.16
2023-12-20T08:44:28.240Z,35.10
2023-12-20T08:45:28.223Z,34.89
2023-12-20T08:46:28.252Z,34.59
2023-12-20T08:47:28.305Z,34.29
2023-12-20T08:48:28.355Z,32.65
2023-12-20T08:49:28.276Z,32.54
2023-12-20T08:50:28.273Z,34.97
2023-12-20T08:51:28.171Z,34.37
2023-12-20T08:52:28.196Z,34.40
2023-12-20T08:53:28.151Z,34.41
2023-12-20T08:54:28.125Z,34.52
2023-12-20T08:55:28.252Z,33.64
2023-12-20T08:56:28.108Z,33.90
2023-12-20T08:57:28.105Z,33.49
2023-12-20T08:58:28.188Z,33.65
2023-12-20T08:59:28.076Z,33.76
2023-12-20T09:00:28.091Z,33.16
2023-12-20T09:01:28.135Z,34.13
2023-12-20T09:02:28.113Z,34.24
2023-12-20T09:03:28.044Z,34.23
2023-12-20T09:04:28.144Z,33.93
2023-12-20T09:05:28.064Z,33.69
2023-12-20T09:06:28.037Z,34.46
2023-12-20T09:07:28.059Z,33.51
2023-12-20T09:08:28.010Z,33.94
2023-12-20T09:09:27.994Z,34.03
2023-12-20T09:10:28.132Z,34.34
2023-12-20T09:11:27.965Z,34.81
2023-12-20T09:12:27.957Z,34.50
2023-12-20T09:13:28.040Z,34.32
2023-12-20T09:14:27.944Z,34.25
2023-12-20T09:15:28.122Z,34.26
2023-12-20T09:16:28.019Z,34.64
2023-12-20T09:17:28.004Z,33.82
2023-12-20T09:18:28.015Z,34.10
2023-12-20T09:19:27.992Z,33.30
2023-12-20T09:20:28.070Z,33.87
2023-12-20T09:21:27.886Z,34.94
2023-12-20T09:22:28.025Z,33.39
2023-12-20T09:23:27.910Z,34.33
2023-12-20T09:24:27.843Z,33.94
2023-12-20T09:25:28.192Z,34.50
2023-12-20T09:26:27.845Z,33.85
2023-12-20T09:27:27.847Z,33.50
2023-12-20T09:28:27.863Z,34.18
2023-12-20T09:29:27.804Z,34.81
2023-12-20T09:30:28.264Z,34.52
2023-12-20T09:31:27.911Z,34.46
2023-12-20T09:32:27.794Z,34.44
2023-12-20T09:33:27.948Z,34.14
2023-12-20T09:34:27.955Z,34.54
2023-12-20T09:35:28.082Z,34.30
2023-12-20T09:36:27.761Z,33.92
2023-12-20T09:37:27.878Z,33.92
2023-12-20T09:38:27.729Z,34.10
2023-12-20T09:39:27.728Z,33.52
2023-12-20T09:40:27.962Z,34.34
2023-12-20T09:41:27.699Z,34.39
2023-12-20T09:42:27.688Z,34.42
2023-12-20T09:43:27.738Z,35.19
2023-12-20T09:44:27.713Z,35.30
2023-12-20T09:45:27.713Z,34.67
2023-12-20T09:46:27.742Z,33.17
2023-12-20T09:47:27.651Z,32.99
2023-12-20T09:48:27.723Z,32.14
2023-12-20T09:49:27.702Z,32.95
2023-12-20T09:50:27.723Z,33.40
2023-12-20T09:51:27.655Z,33.62
2023-12-20T09:52:27.681Z,34.47
2023-12-20T09:53:27.593Z,34.42
2023-12-20T09:54:27.630Z,34.59
2023-12-20T09:55:27.675Z,35.30
2023-12-20T09:56:27.577Z,35.92
2023-12-20T09:57:27.839Z,35.02
2023-12-20T09:58:27.564Z,33.33
2023-12-20T09:59:27.564Z,32.11
2023-12-20T10:00:27.523Z,31.88
2023-12-20T10:01:27.596Z,32.40
2023-12-20T10:02:27.526Z,31.68
2023-12-20T10:03:27.581Z,31.09
2023-12-20T10:04:30.472Z,30.86
2023-12-20T10:05:27.664Z,30.97
2023-12-20T10:06:27.522Z,30.82
2023-12-20T10:07:27.670Z,30.46
2023-12-20T10:08:27.496Z,30.16
2023-12-20T10:09:27.440Z,30.17
2023-12-20T10:10:35.101Z,29.92
2023-12-20T10:11:28.443Z,29.86
2023-12-20T10:12:27.400Z,29.97
2023-12-20T10:13:27.531Z,30.91
2023-12-20T10:14:27.393Z,31.22
2023-12-20T10:15:27.382Z,31.82
2023-12-20T10:16:27.390Z,31.86
2023-12-20T10:17:27.389Z,31.51
2023-12-20T10:18:37.785Z,31.58
2023-12-20T10:19:28.495Z,31.10
2023-12-20T10:20:27.424Z,31.88
2023-12-20T10:21:27.333Z,31.86
2023-12-20T10:22:27.337Z,31.95
2023-12-20T10:23:27.308Z,32.38
2023-12-20T10:24:27.888Z,32.39
2023-12-20T10:25:27.472Z,32.10
2023-12-20T10:26:27.274Z,32.04
2023-12-20T10:27:27.280Z,31.94
2023-12-20T10:28:27.284Z,32.16
2023-12-20T10:29:27.256Z,32.25
2023-12-20T10:30:27.235Z,32.72
2023-12-20T10:31:27.332Z,32.80
2023-12-20T10:32:27.390Z,32.93
2023-12-20T10:33:27.298Z,32.98
2023-12-20T10:34:27.296Z,33.17
2023-12-20T10:35:27.192Z,33.18
2023-12-20T10:36:27.181Z,33.26
2023-12-20T10:37:27.224Z,33.34
2023-12-20T10:38:27.180Z,33.50
2023-12-20T10:39:27.185Z,33.48
2023-12-20T10:40:27.214Z,33.42
2023-12-20T10:41:27.158Z,33.65
2023-12-20T10:42:27.141Z,33.79
2023-12-20T10:43:27.276Z,33.88
2023-12-20T10:44:27.111Z,34.02
2023-12-20T10:45:27.105Z,34.17
2023-12-20T10:46:27.152Z,34.19
2023-12-20T10:47:27.236Z,34.74
2023-12-20T10:48:27.152Z,34.91
2023-12-20T10:49:27.152Z,33.03
2023-12-20T10:50:27.051Z,34.43
2023-12-20T10:51:27.044Z,31.78
2023-12-20T10:52:27.180Z,28.38
2023-12-20T10:53:27.055Z,27.41
2023-12-20T10:54:27.047Z,28.12
2023-12-20T10:55:27.240Z,29.34
2023-12-20T10:56:26.987Z,30.23
2023-12-20T10:57:26.996Z,31.74
2023-12-20T10:58:27.095Z,33.09
2023-12-20T10:59:26.975Z,34.03
2023-12-20T11:00:26.963Z,34.32
2023-12-20T11:01:27.013Z,34.60
2023-12-20T11:02:26.949Z,34.80
2023-12-20T11:03:26.984Z,34.97
2023-12-20T11:04:27.023Z,35.27
2023-12-20T11:05:26.920Z,35.22
2023-12-20T11:06:26.927Z,35.46
2023-12-20T11:07:26.922Z,35.59
2023-12-20T11:08:26.902Z,35.52
2023-12-20T11:09:26.905Z,35.77
2023-12-20T11:10:27.923Z,36.45
2023-12-20T11:11:28.238Z,36.76
2023-12-20T11:12:26.871Z,36.39
2023-12-20T11:13:26.894Z,36.46
2023-12-20T11:14:26.823Z,36.46
2023-12-20T11:15:26.810Z,36.63
2023-12-20T11:16:30.178Z,36.42
2023-12-20T11:17:27.826Z,36.58
2023-12-20T11:18:26.831Z,36.94
2023-12-20T11:19:26.863Z,36.79
2023-12-20T11:20:26.776Z,36.78
2023-12-20T11:21:26.784Z,36.96
2023-12-20T11:22:26.954Z,37.07
2023-12-20T11:23:26.747Z,37.17
2023-12-20T11:24:26.739Z,37.21
2023-12-20T11:25:26.763Z,37.19
2023-12-20T11:26:26.713Z,37.09
2023-12-20T11:27:26.708Z,37.15
2023-12-20T11:28:26.719Z,37.45
2023-12-20T11:29:26.691Z,37.39
2023-12-20T11:30:26.701Z,37.44
2023-12-20T11:31:26.668Z,37.57
2023-12-20T11:32:26.735Z,37.98
2023-12-20T11:33:29.646Z,38.00
2023-12-20T11:34:26.758Z,38.85
2023-12-20T11:35:26.697Z,38.19
2023-12-20T11:36:26.744Z,38.23
2023-12-20T11:37:26.654Z,38.12
2023-12-20T11:38:26.616Z,39.22
2023-12-20T11:39:26.626Z,38.53
2023-12-20T11:40:26.781Z,38.99
2023-12-20T11:41:26.630Z,38.91
2023-12-20T11:42:26.571Z,38.83
2023-12-20T11:43:26.584Z,38.56
2023-12-20T11:44:26.568Z,38.29
2023-12-20T11:45:27.467Z,38.07
2023-12-20T11:46:26.678Z,38.15
2023-12-20T11:47:26.643Z,38.00
2023-12-20T11:48:26.669Z,38.01
2023-12-20T11:49:26.874Z,38.07
2023-12-20T11:50:26.750Z,38.10
2023-12-20T11:51:29.216Z,37.93
2023-12-20T11:52:26.628Z,37.73
2023-12-20T11:53:26.591Z,38.16
2023-12-20T11:54:30.418Z,38.15
2023-12-20T11:55:26.756Z,37.92
2023-12-20T11:56:26.546Z,37.75
2023-12-20T11:57:27.721Z,38.09
2023-12-20T11:58:26.592Z,37.95
2023-12-20T11:59:26.540Z,37.84
2023-12-20T12:00:26.528Z,37.70
2023-12-20T12:01:26.556Z,37.78
2023-12-20T12:02:26.493Z,37.74
2023-12-20T12:03:26.512Z,37.73
2023-12-20T12:04:26.513Z,37.79
2023-12-20T12:05:26.503Z,37.99
2023-12-20T12:06:26.558Z,37.76
2023-12-20T12:07:27.436Z,37.70
2023-12-20T12:08:26.480Z,37.80
2023-12-20T12:09:26.446Z,37.76
2023-12-20T12:10:26.509Z,38.05
2023-12-20T12:11:26.418Z,38.01
2023-12-20T12:12:26.448Z,37.78
2023-12-20T12:13:26.434Z,37.74
2023-12-20T12:14:26.568Z,37.85
2023-12-20T12:15:26.405Z,37.70
2023-12-20T12:16:26.409Z,37.77
2023-12-20T12:17:26.504Z,37.52
2023-12-20T12:18:26.390Z,37.66
2023-12-20T12:19:26.478Z,37.70
2023-12-20T12:20:26.441Z,37.61
2023-12-20T12:21:32.396Z,37.75
2023-12-20T12:22:27.338Z,37.66
2023-12-20T12:23:26.316Z,37.72
2023-12-20T12:24:26.299Z,37.67
2023-12-20T12:25:26.345Z,37.64
2023-12-20T12:26:26.281Z,37.49
2023-12-20T12:27:26.285Z,37.64
2023-12-20T12:28:26.276Z,37.52
2023-12-20T12:29:26.267Z,37.15
2023-12-20T12:30:28.565Z,37.45
2023-12-20T12:31:28.555Z,37.50
2023-12-20T12:32:26.491Z,37.52
2023-12-20T12:33:26.532Z,37.60
2023-12-20T12:34:26.402Z,37.64
2023-12-20T12:35:26.915Z,37.68
2023-12-20T12:36:26.345Z,37.43
2023-12-20T12:37:26.406Z,37.66
2023-12-20T12:38:26.330Z,37.44
2023-12-20T12:39:26.328Z,37.55
2023-12-20T12:40:26.396Z,37.52
2023-12-20T12:41:26.308Z,37.46
2023-12-20T12:42:26.305Z,37.55
2023-12-20T12:43:26.377Z,37.49
2023-12-20T12:44:26.317Z,37.48
2023-12-20T12:45:26.269Z,37.45
2023-12-20T12:46:26.290Z,37.57
2023-12-20T12:47:26.283Z,37.49
2023-12-20T12:48:26.334Z,37.46
2023-12-20T12:49:26.374Z,37.40
2023-12-20T12:50:26.396Z,37.46
2023-12-20T12:51:26.218Z,37.29
2023-12-20T12:52:26.273Z,37.43